createdAt,value
2023-02-22T00:01:47.419Z,5.27
2023-02-22T00:04:16.057Z,5.28
2023-02-22T00:06:42.599Z,5.23
2023-02-22T00:09:10.397Z,5.10
2023-02-22T00:11:38.597Z,5.05
2023-02-22T00:14:05.806Z,5.04
2023-02-22T00:16:32.398Z,4.96
2023-02-22T00:18:59.018Z,4.87
2023-02-22T00:21:25.687Z,4.96
2023-02-22T00:23:54.694Z,4.92
2023-02-22T00:26:23.481Z,4.85
2023-02-22T00:28:51.207Z,4.78
2023-02-22T00:31:18.896Z,4.70
2023-02-22T00:33:45.801Z,4.69
2023-02-22T00:36:13.616Z,4.69
2023-02-22T00:38:41.229Z,4.60
2023-02-22T00:41:07.795Z,4.57
2023-02-22T00:43:34.834Z,4.55
2023-02-22T00:46:01.454Z,4.58
2023-02-22T00:48:28.558Z,4.62
2023-02-22T00:50:55.495Z,4.63
2023-02-22T00:53:24.307Z,4.60
2023-02-22T00:55:50.848Z,4.58
2023-02-22T00:58:18.749Z,4.62
2023-02-22T01:00:45.623Z,4.63
2023-02-22T01:03:15.054Z,4.57
2023-02-22T01:05:41.954Z,4.61
2023-02-22T01:08:12.198Z,4.62
2023-02-22T01:10:39.546Z,4.58
2023-02-22T01:13:09.118Z,4.61
2023-02-22T01:15:37.651Z,4.57
2023-02-22T01:18:05.267Z,4.59
2023-02-22T01:20:32.505Z,4.59
2023-02-22T01:23:01.298Z,4.58
2023-02-22T01:25:28.656Z,4.56
2023-02-22T01:27:56.807Z,4.52
2023-02-22T01:30:25.760Z,4.44
2023-02-22T01:32:52.992Z,4.40
2023-02-22T01:35:23.130Z,4.41
2023-02-22T01:37:49.653Z,4.38
2023-02-22T01:40:34.641Z,4.35
2023-02-22T01:43:15.532Z,4.25
2023-02-22T01:46:08.462Z,4.22
2023-02-22T01:48:47.417Z,4.07
2023-02-22T01:51:20.783Z,4.04
2023-02-22T01:54:03.793Z,4.01
2023-02-22T01:56:33.040Z,3.93
2023-02-22T01:59:02.833Z,3.98
2023-02-22T02:01:29.677Z,4.01
2023-02-22T02:04:00.065Z,3.99
2023-02-22T02:06:28.560Z,4.04
2023-02-22T02:09:05.088Z,4.06
2023-02-22T02:11:32.507Z,4.03
2023-02-22T02:13:59.729Z,4.01
2023-02-22T02:16:35.675Z,4.00
2023-02-22T02:19:03.370Z,4.05
2023-02-22T02:22:04.035Z,4.00
2023-02-22T02:24:50.395Z,4.07
2023-02-22T02:27:25.871Z,4.07
2023-02-22T02:30:13.289Z,4.02
2023-02-22T02:32:43.292Z,4.05
2023-02-22T02:35:34.525Z,4.07
2023-02-22T02:38:22.964Z,4.13
2023-02-22T02:40:58.722Z,4.10
2023-02-22T02:43:43.597Z,4.15
2023-02-22T02:46:21.474Z,4.10
2023-02-22T02:48:57.393Z,4.11
2023-02-22T02:51:28.028Z,4.17
2023-02-22T02:53:54.886Z,4.14
2023-02-22T02:56:23.503Z,4.13
2023-02-22T02:58:54.143Z,4.08
2023-02-22T03:01:44.799Z,4.02
2023-02-22T03:04:20.517Z,4.06
2023-02-22T03:06:57.047Z,4.03
2023-02-22T03:09:35.314Z,4.00
2023-02-22T03:12:39.931Z,3.97
2023-02-22T03:15:22.031Z,3.99
2023-02-22T03:17:56.965Z,3.86
2023-02-22T03:20:43.516Z,3.82
2023-02-22T03:23:21.041Z,3.80
2023-02-22T03:25:52.222Z,3.75
2023-02-22T03:28:20.472Z,3.67
2023-02-22T03:30:50.695Z,3.60
2023-02-22T03:33:39.795Z,3.54
2023-02-22T03:36:16.225Z,3.50
2023-02-22T03:38:44.361Z,3.43
2023-02-22T03:41:11.679Z,3.44
2023-02-22T03:43:41.722Z,3.53
2023-02-22T03:46:09.658Z,3.57
2023-02-22T03:48:44.147Z,3.51
2023-02-22T03:51:16.704Z,3.49
2023-02-22T03:53:48.179Z,3.50
2023-02-22T03:56:20.259Z,3.48
2023-02-22T03:58:50.233Z,3.50
2023-02-22T04:01:17.551Z,3.51
2023-02-22T04:03:44.618Z,3.52
2023-02-22T04:06:11.633Z,3.40
2023-02-22T04:08:38.167Z,3.45
2023-02-22T04:11:04.785Z,3.48
2023-02-22T04:13:31.351Z,3.54
2023-02-22T04:15:57.986Z,3.52
2023-02-22T04:18:24.504Z,3.46
2023-02-22T04:20:51.750Z,3.44
2023-02-22T04:23:18.367Z,3.47
2023-02-22T04:25:44.862Z,3.47
2023-02-22T04:28:11.657Z,3.51
2023-02-22T04:30:38.259Z,3.50
2023-02-22T04:33:04.839Z,3.52
2023-02-22T04:35:33.064Z,3.52
2023-02-22T04:38:01.614Z,3.55
2023-02-22T04:40:28.156Z,3.55
2023-02-22T04:42:54.817Z,3.54
2023-02-22T04:45:21.445Z,3.52
2023-02-22T04:47:48.005Z,3.60
2023-02-22T04:50:14.847Z,3.51
2023-02-22T04:52:41.390Z,3.54
2023-02-22T04:55:08.368Z,3.54
2023-02-22T04:57:34.888Z,3.52
2023-02-22T05:00:01.828Z,3.55
2023-02-22T05:02:28.550Z,3.54
2023-02-22T05:04:55.223Z,3.56
2023-02-22T05:07:21.938Z,3.49
2023-02-22T05:09:48.466Z,3.58
2023-02-22T05:12:15.268Z,3.53
2023-02-22T05:14:42.360Z,3.56
2023-02-22T05:17:09.023Z,3.63
2023-02-22T05:19:35.670Z,3.65
2023-02-22T05:22:02.237Z,3.69
2023-02-22T05:24:28.805Z,3.63
2023-02-22T05:26:55.392Z,3.63
2023-02-22T05:29:21.878Z,3.59
2023-02-22T05:31:48.508Z,3.60
2023-02-22T05:34:15.790Z,3.67
2023-02-22T05:36:42.669Z,3.63
2023-02-22T05:39:09.181Z,3.65
2023-02-22T05:41:35.728Z,3.66
2023-02-22T05:44:03.058Z,3.61
2023-02-22T05:46:29.639Z,3.60
2023-02-22T05:48:56.194Z,3.54
2023-02-22T05:51:23.272Z,3.61
2023-02-22T05:53:52.169Z,3.57
2023-02-22T05:56:26.470Z,3.60
2023-02-22T05:58:53.333Z,3.62
2023-02-22T06:01:20.759Z,3.62
2023-02-22T06:03:49.673Z,3.63
2023-02-22T06:06:16.509Z,3.68
2023-02-22T06:08:43.332Z,3.72
2023-02-22T06:11:10.417Z,3.70
2023-02-22T06:13:37.022Z,3.63
2023-02-22T06:16:04.421Z,3.63
2023-02-22T06:18:31.308Z,3.61
2023-02-22T06:20:59.184Z,3.53
2023-02-22T06:23:26.865Z,3.52
2023-02-22T06:25:53.416Z,3.61
2023-02-22T06:28:19.914Z,3.61
2023-02-22T06:30:46.480Z,3.58
2023-02-22T06:33:13.041Z,3.58
2023-02-22T06:35:39.639Z,3.60
2023-02-22T06:38:06.276Z,3.63
2023-02-22T06:40:32.854Z,3.64
2023-02-22T06:43:00.001Z,3.61
2023-02-22T06:45:26.731Z,3.57
2023-02-22T06:47:53.322Z,3.61
2023-02-22T06:50:24.182Z,3.56
2023-02-22T06:52:53.056Z,3.52
2023-02-22T06:55:25.526Z,3.60
2023-02-22T06:57:52.347Z,3.57
2023-02-22T07:00:20.782Z,3.48
2023-02-22T07:02:50.855Z,3.53
2023-02-22T07:05:20.106Z,3.62
2023-02-22T07:07:48.029Z,3.62
2023-02-22T07:10:41.172Z,3.66
2023-02-22T07:13:08.725Z,3.73
2023-02-22T07:15:35.855Z,3.72
2023-02-22T07:18:02.443Z,3.76
2023-02-22T07:20:30.409Z,3.73
2023-02-22T07:22:56.935Z,3.82
2023-02-22T07:25:23.846Z,3.79
2023-02-22T07:27:52.381Z,3.84
2023-02-22T07:30:20.707Z,3.80
2023-02-22T07:32:47.315Z,3.85
2023-02-22T07:35:36.940Z,3.88
2023-02-22T07:38:08.397Z,3.85
2023-02-22T07:40:35.971Z,3.83
2023-02-22T07:43:15.150Z,3.89
2023-02-22T07:45:42.587Z,3.88
2023-02-22T07:48:09.324Z,3.89
2023-02-22T07:50:36.152Z,3.93
2023-02-22T07:53:05.360Z,3.82
2023-02-22T07:55:33.135Z,3.79
2023-02-22T07:58:02.040Z,3.85
2023-02-22T08:00:33.780Z,3.89
2023-02-22T08:03:02.284Z,3.91
2023-02-22T08:05:30.182Z,3.96
2023-02-22T08:07:56.820Z,3.93
2023-02-22T08:10:25.069Z,3.92
2023-02-22T08:12:52.152Z,4.00
2023-02-22T08:15:21.639Z,4.04
2023-02-22T08:17:48.238Z,4.05
2023-02-22T08:20:14.839Z,4.13
2023-02-22T08:22:44.510Z,4.19
2023-02-22T08:25:12.289Z,4.24
2023-02-22T08:27:39.258Z,4.29
2023-02-22T08:30:06.352Z,4.37
2023-02-22T08:32:33.531Z,4.45
2023-02-22T08:35:01.253Z,4.54
2023-02-22T08:37:28.122Z,4.67
2023-02-22T08:39:56.153Z,4.70
2023-02-22T08:42:22.891Z,4.74
2023-02-22T08:44:49.594Z,4.81
2023-02-22T08:47:16.105Z,4.81
2023-02-22T08:49:42.625Z,4.85
2023-02-22T08:52:09.447Z,4.91
2023-02-22T08:54:35.966Z,5.04
2023-02-22T08:57:02.502Z,5.16
2023-02-22T08:59:29.197Z,5.27
2023-02-22T09:01:55.761Z,5.76
2023-02-22T09:04:22.357Z,5.91
2023-02-22T09:06:52.014Z,5.80
2023-02-22T09:09:21.390Z,5.64
2023-02-22T09:11:50.990Z,5.59
2023-02-22T09:14:19.297Z,5.64
2023-02-22T09:16:45.959Z,5.52
2023-02-22T09:19:12.510Z,5.56
2023-02-22T09:21:40.335Z,5.73
2023-02-22T09:24:08.777Z,5.79
2023-02-22T09:26:42.756Z,5.81
2023-02-22T09:29:12.658Z,5.77
2023-02-22T09:31:40.486Z,5.73
2023-02-22T09:34:14.094Z,5.88
2023-02-22T09:36:43.987Z,6.12
2023-02-22T09:39:11.354Z,6.08
2023-02-22T09:42:09.439Z,6.02
2023-02-22T09:44:43.910Z,5.91
2023-02-22T09:47:18.312Z,5.99
2023-02-22T09:49:57.487Z,5.87
2023-02-22T09:52:32.441Z,5.94
2023-02-22T09:55:23.298Z,5.89
2023-02-22T09:57:51.634Z,5.83
2023-02-22T10:00:22.798Z,5.82
2023-02-22T10:03:08.876Z,5.85
2023-02-22T10:05:41.890Z,5.90
2023-02-22T10:08:14.268Z,6.00
2023-02-22T10:10:46.050Z,5.96
2023-02-22T10:13:48.659Z,6.02
2023-02-22T10:16:27.043Z,6.03
2023-02-22T10:19:31.636Z,6.13
2023-02-22T10:22:19.097Z,6.32
2023-02-22T10:24:57.198Z,6.42
2023-02-22T10:28:00.374Z,6.52
2023-02-22T10:30:30.898Z,6.65
2023-02-22T10:33:17.007Z,6.63
2023-02-22T10:35:46.853Z,6.78
2023-02-22T10:38:18.220Z,7.05
2023-02-22T10:41:23.184Z,7.43
2023-02-22T10:43:50.422Z,7.47
2023-02-22T10:46:19.519Z,7.44
2023-02-22T10:48:50.835Z,7.38
2023-02-22T10:51:17.430Z,7.37
2023-02-22T10:53:44.406Z,7.55
2023-02-22T10:56:23.113Z,7.32
2023-02-22T10:58:59.595Z,7.22
2023-02-22T11:01:32.115Z,7.30
2023-02-22T11:04:15.401Z,7.49
2023-02-22T11:06:44.678Z,7.55
2023-02-22T11:09:18.425Z,7.59
2023-02-22T11:11:47.288Z,7.67
2023-02-22T11:14:26.641Z,7.84
2023-02-22T11:16:54.455Z,7.88
2023-02-22T11:19:25.858Z,7.86
2023-02-22T11:21:56.277Z,7.89
2023-02-22T11:24:24.244Z,7.88
2023-02-22T11:26:54.215Z,8.04
2023-02-22T11:29:22.338Z,8.08
2023-02-22T11:31:52.246Z,8.12
2023-02-22T11:34:38.161Z,8.02
2023-02-22T11:37:29.387Z,8.28
2023-02-22T11:40:19.843Z,8.27
2023-02-22T11:42:47.042Z,8.23
2023-02-22T11:45:21.181Z,8.15
2023-02-22T11:47:53.664Z,8.15
2023-02-22T11:50:46.822Z,8.11
2023-02-22T11:53:22.178Z,8.31
2023-02-22T11:56:08.035Z,8.32
2023-02-22T11:58:54.289Z,8.23
2023-02-22T12:01:28.480Z,8.43
2023-02-22T12:04:15.834Z,8.33
2023-02-22T12:07:08.356Z,8.62
2023-02-22T12:09:53.037Z,8.68
2023-02-22T12:12:27.948Z,8.44
2023-02-22T12:15:05.990Z,8.53
2023-02-22T12:17:48.235Z,8.74
2023-02-22T12:23:00.818Z,8.75
2023-02-22T12:25:33.359Z,8.80
2023-02-22T12:28:24.656Z,8.63
2023-02-22T12:31:20.499Z,8.70
2023-02-22T12:33:54.262Z,8.48
2023-02-22T12:36:25.378Z,8.28
2023-02-22T12:38:58.335Z,8.14
2023-02-22T12:41:33.968Z,8.13
2023-02-22T12:44:05.468Z,8.13
2023-02-22T12:46:44.859Z,8.21
2023-02-22T12:49:19.512Z,8.20
2023-02-22T12:51:52.753Z,8.34
2023-02-22T12:54:26.066Z,8.41
2023-02-22T12:57:17.591Z,8.36
2023-02-22T12:59:53.833Z,8.37
2023-02-22T13:03:01.209Z,8.39
2023-02-22T13:05:33.480Z,8.65
2023-02-22T13:08:29.132Z,8.52
2023-02-22T13:11:18.229Z,8.58
2023-02-22T13:14:09.276Z,8.79
2023-02-22T13:16:52.634Z,8.65
2023-02-22T13:19:45.318Z,8.88
2023-02-22T13:22:29.841Z,8.89
2023-02-22T13:25:09.698Z,8.87
2023-02-22T13:27:43.847Z,8.92
2023-02-22T13:30:18.542Z,8.72
2023-02-22T13:33:25.969Z,8.61
2023-02-22T13:35:55.573Z,8.73
2023-02-22T13:38:33.968Z,8.79
2023-02-22T13:41:09.578Z,8.79
2023-02-22T13:43:55.015Z,8.78
2023-02-22T13:46:40.304Z,8.87
2023-02-22T13:49:12.643Z,8.73
2023-02-22T13:51:53.739Z,8.68
2023-02-22T13:54:34.286Z,8.73
2023-02-22T13:57:03.052Z,8.93
2023-02-22T13:59:31.506Z,8.71
2023-02-22T14:01:59.271Z,8.72
2023-02-22T14:04:28.836Z,8.87
2023-02-22T14:06:56.603Z,8.93
2023-02-22T14:09:51.888Z,9.04
2023-02-22T14:12:30.420Z,8.84
2023-02-22T14:15:29.745Z,8.67
2023-02-22T14:17:56.713Z,8.71
2023-02-22T14:20:36.100Z,8.58
2023-02-22T14:23:24.571Z,8.57
2023-02-22T14:25:51.599Z,8.71
2023-02-22T14:28:41.913Z,8.70
2023-02-22T14:31:15.473Z,8.70
2023-02-22T14:34:02.022Z,8.65
2023-02-22T14:36:30.539Z,8.62
2023-02-22T14:39:06.817Z,8.61
2023-02-22T14:41:33.571Z,8.78
2023-02-22T14:44:03.926Z,8.72
2023-02-22T14:46:33.468Z,8.78
2023-02-22T14:49:04.322Z,8.71
2023-02-22T14:51:42.829Z,8.72
2023-02-22T14:54:25.721Z,8.54
2023-02-22T14:57:14.955Z,8.58
2023-02-22T14:59:51.040Z,8.57
2023-02-22T15:02:19.599Z,8.52
2023-02-22T15:04:52.982Z,8.45
2023-02-22T15:07:27.323Z,8.38
2023-02-22T15:10:17.634Z,8.29
2023-02-22T15:12:52.248Z,8.32
2023-02-22T15:15:21.970Z,8.22
2023-02-22T15:17:58.483Z,8.18
2023-02-22T15:20:26.050Z,8.11
2023-02-22T15:35:59.553Z,7.98
2023-02-22T15:38:30.365Z,7.89
2023-02-22T15:41:04.845Z,7.92
2023-02-22T15:43:32.653Z,7.84
2023-02-22T15:45:59.849Z,7.80
2023-02-22T15:48:27.224Z,7.69
2023-02-22T15:51:10.594Z,7.61
2023-02-22T15:53:44.496Z,7.59
2023-02-22T15:56:35.311Z,7.51
2023-02-22T15:59:18.387Z,7.51
2023-02-22T16:01:46.702Z,7.50
2023-02-22T16:04:21.877Z,7.47
2023-02-22T16:06:49.194Z,7.47
2023-02-22T16:09:17.483Z,7.46
2023-02-22T16:11:45.928Z,7.41
2023-02-22T16:14:40.772Z,7.44
2023-02-22T16:17:35.318Z,7.42
2023-02-22T16:20:20.521Z,7.51
2023-02-22T16:22:51.372Z,7.47
2023-02-22T16:25:17.999Z,7.48
2023-02-22T16:28:01.527Z,7.45
2023-02-22T16:30:34.504Z,7.48
2023-02-22T16:33:05.559Z,7.50
2023-02-22T16:35:35.356Z,7.56
2023-02-22T16:38:07.582Z,7.51
2023-02-22T16:40:37.982Z,7.50
2023-02-22T16:43:12.276Z,7.49
2023-02-22T16:45:41.293Z,7.53
2023-02-22T16:48:15.848Z,7.50
2023-02-22T16:50:42.461Z,7.49
2023-02-22T16:53:09.155Z,7.51
2023-02-22T16:55:36.653Z,7.48
2023-02-22T16:58:04.206Z,7.46
2023-02-22T17:00:34.621Z,7.41
2023-02-22T17:03:03.957Z,7.46
2023-02-22T17:05:31.901Z,7.45
2023-02-22T17:07:58.549Z,7.52
2023-02-22T17:10:26.114Z,7.52
2023-02-22T17:12:53.389Z,7.50
2023-02-22T17:15:28.221Z,7.52
2023-02-22T17:17:55.902Z,7.53
2023-02-22T17:20:32.659Z,7.49
2023-02-22T17:23:01.184Z,7.51
2023-02-22T17:25:31.361Z,7.51
2023-02-22T17:27:57.881Z,7.47
2023-02-22T17:30:24.653Z,7.44
2023-02-22T17:32:52.264Z,7.42
2023-02-22T17:35:20.632Z,7.44
2023-02-22T17:37:48.043Z,7.45
2023-02-22T17:40:14.944Z,7.46
2023-02-22T17:42:42.891Z,7.45
2023-02-22T17:45:10.384Z,7.41
2023-02-22T17:47:36.989Z,7.38
2023-02-22T17:50:03.524Z,7.44
2023-02-22T17:52:30.241Z,7.38
2023-02-22T17:54:56.797Z,7.38
2023-02-22T17:57:23.343Z,7.39
2023-02-22T17:59:50.262Z,7.47
2023-02-22T18:02:16.872Z,7.41
2023-02-22T18:04:43.470Z,7.38
2023-02-22T18:07:09.976Z,7.32
2023-02-22T18:09:36.662Z,7.30
2023-02-22T18:12:03.318Z,7.25
2023-02-22T18:14:29.882Z,7.26
2023-02-22T18:16:56.406Z,7.21
2023-02-22T18:19:23.433Z,7.16
2023-02-22T18:21:50.137Z,7.14
2023-02-22T18:24:17.362Z,7.14
2023-02-22T18:26:43.924Z,7.13
2023-02-22T18:29:12.336Z,7.13
2023-02-22T18:31:38.902Z,7.11
2023-02-22T18:34:05.476Z,7.11
2023-02-22T18:36:32.455Z,7.06
2023-02-22T18:38:59.038Z,7.12
2023-02-22T18:41:25.796Z,7.08
2023-02-22T18:43:55.172Z,7.11
2023-02-22T18:46:23.460Z,7.19
2023-02-22T18:48:53.275Z,7.16
2023-02-22T18:51:19.854Z,7.08
2023-02-22T18:53:48.001Z,7.06
2023-02-22T18:56:17.841Z,7.03
2023-02-22T18:58:45.046Z,7.04
2023-02-22T19:01:17.206Z,7.07
2023-02-22T19:03:47.133Z,7.07
2023-02-22T19:06:14.537Z,7.08
2023-02-22T19:08:42.875Z,7.03
2023-02-22T19:11:21.644Z,7.04
2023-02-22T19:13:50.000Z,7.03
2023-02-22T19:16:21.812Z,7.04
2023-02-22T19:18:50.989Z,7.07
2023-02-22T19:21:18.307Z,7.06
2023-02-22T19:23:48.762Z,7.06
2023-02-22T19:26:20.846Z,7.04
2023-02-22T19:28:48.252Z,7.06
2023-02-22T19:31:21.458Z,7.01
2023-02-22T19:33:52.127Z,7.02
2023-02-22T19:36:19.910Z,6.96
2023-02-22T19:38:46.737Z,6.96
2023-02-22T19:41:17.744Z,6.95
2023-02-22T19:43:45.505Z,6.93
2023-02-22T19:46:12.513Z,6.94
2023-02-22T19:48:39.348Z,6.93
2023-02-22T19:51:08.522Z,6.93
2023-02-22T19:53:35.668Z,6.88
2023-02-22T19:56:09.920Z,6.89
2023-02-22T19:58:37.969Z,6.90
2023-02-22T20:01:15.353Z,6.84
2023-02-22T20:03:42.781Z,6.82
2023-02-22T20:06:11.523Z,6.74
2023-02-22T20:08:42.341Z,6.71
2023-02-22T20:11:10.520Z,6.70
2023-02-22T20:13:38.113Z,6.67
2023-02-22T20:16:05.032Z,6.70
2023-02-22T20:18:31.560Z,6.70
2023-02-22T20:20:58.057Z,6.69
2023-02-22T20:23:24.650Z,6.70
2023-02-22T20:25:55.579Z,6.70
2023-02-22T20:28:23.281Z,6.72
2023-02-22T20:30:51.572Z,6.71
2023-02-22T20:33:19.428Z,6.70
2023-02-22T20:35:46.758Z,6.73
2023-02-22T20:38:14.438Z,6.72
2023-02-22T20:40:42.314Z,6.70
2023-02-22T20:43:09.711Z,6.71
2023-02-22T20:45:37.568Z,6.72
2023-02-22T20:48:04.429Z,6.71
2023-02-22T20:50:31.775Z,6.71
2023-02-22T20:52:58.865Z,6.72
2023-02-22T20:55:25.860Z,6.73
2023-02-22T20:57:52.458Z,6.72
2023-02-22T21:00:19.130Z,6.70
2023-02-22T21:02:46.769Z,6.66
2023-02-22T21:05:13.904Z,6.69
2023-02-22T21:07:40.764Z,6.66
2023-02-22T21:10:07.433Z,6.65
2023-02-22T21:12:35.011Z,6.66
2023-02-22T21:15:01.553Z,6.66
2023-02-22T21:17:30.867Z,6.68
2023-02-22T21:19:58.384Z,6.65
2023-02-22T21:22:25.287Z,6.67
2023-02-22T21:24:52.129Z,6.67
2023-02-22T21:27:18.900Z,6.65
2023-02-22T21:29:45.474Z,6.65
2023-02-22T21:32:13.759Z,6.63
2023-02-22T21:34:40.532Z,6.67
2023-02-22T21:37:08.336Z,6.64
2023-02-22T21:39:35.474Z,6.64
2023-02-22T21:42:02.311Z,6.61
2023-02-22T21:44:29.655Z,6.60
2023-02-22T21:46:56.398Z,6.62
2023-02-22T21:49:23.282Z,6.60
2023-02-22T21:51:51.609Z,6.60
2023-02-22T21:54:18.667Z,6.55
2023-02-22T21:56:45.244Z,6.56
2023-02-22T21:59:14.753Z,6.56
2023-02-22T22:01:49.945Z,6.55
2023-02-22T22:04:21.563Z,6.53
2023-02-22T22:06:50.874Z,6.52
2023-02-22T22:09:21.916Z,6.53
2023-02-22T22:11:51.036Z,6.57
2023-02-22T22:14:23.386Z,6.53
2023-02-22T22:16:51.673Z,6.56
2023-02-22T22:19:18.461Z,6.54
2023-02-22T22:21:46.852Z,6.52
2023-02-22T22:24:13.451Z,6.57
2023-02-22T22:26:40.313Z,6.63
2023-02-22T22:29:10.396Z,6.59
2023-02-22T22:31:37.576Z,6.62
2023-02-22T22:34:04.153Z,6.63
2023-02-22T22:36:30.639Z,6.64
2023-02-22T22:39:00.964Z,6.65
2023-02-22T22:41:30.280Z,6.64
2023-02-22T22:43:56.801Z,6.65
2023-02-22T22:46:23.475Z,6.65
2023-02-22T22:48:50.060Z,6.65
2023-02-22T22:51:20.015Z,6.65
2023-02-22T22:53:48.164Z,6.66
2023-02-22T22:56:18.587Z,6.68
2023-02-22T22:58:53.897Z,6.65
2023-02-22T23:01:27.034Z,6.63
2023-02-22T23:04:02.492Z,6.63
2023-02-22T23:06:33.126Z,6.65
2023-02-22T23:09:11.816Z,6.65
2023-02-22T23:11:46.175Z,6.65
2023-02-22T23:14:14.959Z,6.65
2023-02-22T23:16:42.661Z,6.64
2023-02-22T23:19:09.323Z,6.66
2023-02-22T23:21:36.262Z,6.64
2023-02-22T23:24:06.361Z,6.64
2023-02-22T23:26:34.042Z,6.62
2023-02-22T23:29:01.000Z,6.63
2023-02-22T23:31:32.139Z,6.56
2023-02-22T23:33:59.132Z,6.58
2023-02-22T23:36:26.929Z,6.59
2023-02-22T23:38:54.268Z,6.60
2023-02-22T23:41:21.114Z,6.57
2023-02-22T23:43:47.773Z,6.55
2023-02-22T23:46:18.567Z,6.59
2023-02-22T23:48:51.022Z,6.60
2023-02-22T23:51:20.630Z,6.62
2023-02-22T23:53:48.824Z,6.64
2023-02-22T23:56:17.888Z,6.64
2023-02-22T23:58:47.115Z,6.62
